Time;durP1;ratioP1;P1;durP2;ratioP2;P2;SDS_P1;SDS_P2;PMS_P1;PMS_P2;Temp;Humidity;BMP_temperature;BMP_pressure;BME280_temperature;BME280_humidity;BME280_pressure;Samples;Min_cycle;Max_cycle;Signal;HPM_P1;HPM_P2
2022/07/06 00:02:23;;;;;;;;;;;15.30;99.90;;;;;;5033509;28;19928;-83
2022/07/06 00:04:48;;;;;;;;;;;15.30;99.90;;;;;;5016693;28;19943;-83
2022/07/06 00:07:14;;;;;;;;;;;15.20;99.90;;;;;;5032544;28;19921;-83
2022/07/06 00:09:40;;;;;;;;;;;15.20;99.90;;;;;;5033999;28;20377;-82
2022/07/06 00:12:06;;;;;;;;;;;15.20;99.90;;;;;;5034394;28;19916;-83
2022/07/06 00:14:32;;;;;;;;;;;15.20;99.90;;;;;;5045317;28;19920;-83
2022/07/06 00:16:57;;;;;;;;;;;15.10;99.90;;;;;;5034423;28;20011;-83
2022/07/06 00:19:23;;;;;;;;;;;15.10;99.90;;;;;;5018532;28;20305;-83
2022/07/06 00:21:48;;;;;;;;;;;15.00;99.90;;;;;;5032546;28;19970;-82
2022/07/06 00:24:14;;;;;;;;;;;15.10;99.90;;;;;;5033969;28;19921;-83
2022/07/06 00:26:40;;;;;;;;;;;15.00;99.90;;;;;;5033626;28;19917;-82
2022/07/06 00:29:05;;;;;;;;;;;14.90;99.90;;;;;;5034046;28;20270;-83
2022/07/06 00:31:31;;;;;;;;;;;14.90;99.90;;;;;;5033552;28;19920;-83
2022/07/06 00:33:56;;;;;;;;;;;14.80;99.90;;;;;;5017639;28;20015;-83
2022/07/06 00:36:22;;;;;;;;;;;14.80;99.90;;;;;;5033447;28;19927;-83
2022/07/06 00:38:47;;;;;;;;;;;14.80;99.90;;;;;;5014672;28;20384;-82
2022/07/06 00:41:13;;;;;;;;;;;14.80;99.90;;;;;;5016021;28;19917;-83
2022/07/06 00:43:50;;;;;;;;;;;14.80;99.90;;;;;;5033239;28;20307;-82
2022/07/06 00:46:15;;;;;;;;;;;14.80;99.90;;;;;;5040558;28;19952;-82
2022/07/06 00:48:41;;;;;;;;;;;14.80;99.90;;;;;;5033678;28;19920;-82
2022/07/06 00:51:06;;;;;;;;;;;14.80;99.90;;;;;;5033441;28;19925;-82
2022/07/06 00:53:32;;;;;;;;;;;14.80;99.90;;;;;;5033538;28;19956;-83
2022/07/06 00:55:57;;;;;;;;;;;14.70;99.90;;;;;;5033219;28;19947;-83
2022/07/06 00:58:24;;;;;;;;;;;14.70;99.90;;;;;;5033524;28;19921;-82
2022/07/06 01:00:50;;;;;;;;;;;14.70;99.90;;;;;;5033497;28;19920;-82
2022/07/06 01:03:15;;;;;;;;;;;14.80;99.90;;;;;;5033491;28;20004;-83
2022/07/06 01:05:41;;;;;;;;;;;14.80;99.90;;;;;;5033587;28;19921;-83
2022/07/06 01:08:06;;;;;;;;;;;14.70;99.90;;;;;;5033868;28;20026;-82
2022/07/06 01:10:32;;;;;;;;;;;14.70;99.90;;;;;;5033188;28;19917;-82
2022/07/06 01:12:58;;;;;;;;;;;14.70;99.90;;;;;;5033722;28;19962;-83
2022/07/06 01:15:24;;;;;;;;;;;14.70;99.90;;;;;;5033024;28;20031;-82
2022/07/06 01:17:50;;;;;;;;;;;14.70;99.90;;;;;;5033017;28;19920;-83
2022/07/06 01:20:16;;;;;;;;;;;14.70;99.90;;;;;;5032912;28;20681;-83
2022/07/06 01:22:42;;;;;;;;;;;14.60;99.90;;;;;;5033052;28;20392;-83
2022/07/06 01:25:08;;;;;;;;;;;14.60;99.90;;;;;;5044486;28;19967;-83
2022/07/06 01:27:37;;;;;;;;;;;14.60;99.90;;;;;;5033033;28;20329;-83
2022/07/06 01:30:04;;;;;;;;;;;14.70;99.90;;;;;;5033211;28;19962;-83
2022/07/06 01:32:30;;;;;;;;;;;14.70;99.90;;;;;;5032886;28;19999;-83
2022/07/06 01:34:55;;;;;;;;;;;14.70;99.90;;;;;;5030709;28;20362;-82
2022/07/06 01:37:21;;;;;;;;;;;14.70;99.90;;;;;;5015603;28;19929;-83
2022/07/06 01:39:47;;;;;;;;;;;14.70;99.90;;;;;;5030863;28;19917;-83
2022/07/06 01:42:12;;;;;;;;;;;14.70;99.90;;;;;;5009892;28;19917;-83
2022/07/06 01:44:38;;;;;;;;;;;14.60;99.90;;;;;;5025811;28;19920;-83
2022/07/06 01:47:03;;;;;;;;;;;14.60;99.90;;;;;;5018427;28;19917;-83
2022/07/06 01:49:29;;;;;;;;;;;14.50;99.90;;;;;;5014434;28;19924;-82
2022/07/06 01:51:54;;;;;;;;;;;14.60;99.90;;;;;;5031332;28;19921;-83
2022/07/06 01:54:20;;;;;;;;;;;14.60;99.90;;;;;;5033183;28;19923;-82
2022/07/06 01:56:45;;;;;;;;;;;14.60;99.90;;;;;;5033248;28;19917;-82
2022/07/06 01:59:11;;;;;;;;;;;14.60;99.90;;;;;;5033073;28;19920;-82
2022/07/06 02:01:36;;;;;;;;;;;14.60;99.90;;;;;;5018081;28;20663;-83
2022/07/06 02:04:02;;;;;;;;;;;14.60;99.90;;;;;;5032667;28;19986;-83
2022/07/06 02:06:27;;;;;;;;;;;14.50;99.90;;;;;;5032856;28;19917;-83
2022/07/06 02:08:54;;;;;;;;;;;14.50;99.90;;;;;;5036074;28;19917;-82
2022/07/06 02:11:20;;;;;;;;;;;14.50;99.90;;;;;;5019915;28;19935;-82
2022/07/06 02:13:45;;;;;;;;;;;14.50;99.90;;;;;;5036752;28;20388;-83
2022/07/06 02:16:11;;;;;;;;;;;14.50;99.90;;;;;;5036583;28;19921;-83
2022/07/06 02:18:37;;;;;;;;;;;14.60;99.90;;;;;;5036053;28;19927;-83
2022/07/06 02:21:04;;;;;;;;;;;14.50;99.90;;;;;;5036392;28;19916;-83
2022/07/06 02:23:30;;;;;;;;;;;14.50;99.90;;;;;;5033800;28;20007;-82
2022/07/06 02:25:55;;;;;;;;;;;14.50;99.90;;;;;;5035750;28;20007;-83
2022/07/06 02:28:21;;;;;;;;;;;14.50;99.90;;;;;;5036255;28;20381;-82
2022/07/06 02:30:46;;;;;;;;;;;14.50;99.90;;;;;;5019481;28;20365;-83
2022/07/06 02:33:12;;;;;;;;;;;14.50;99.90;;;;;;5036387;28;19917;-84
2022/07/06 02:35:41;;;;;;;;;;;14.50;99.90;;;;;;5035156;28;19981;-82
2022/07/06 02:38:07;;;;;;;;;;;14.50;99.90;;;;;;5036731;28;19916;-82
2022/07/06 02:40:33;;;;;;;;;;;14.40;99.90;;;;;;5028665;28;19917;-84
2022/07/06 02:42:58;;;;;;;;;;;14.40;99.90;;;;;;5034061;28;20396;-83
2022/07/06 02:45:24;;;;;;;;;;;14.30;99.90;;;;;;5035916;28;19931;-82
2022/07/06 02:47:50;;;;;;;;;;;14.30;99.90;;;;;;5035209;28;19962;-83
2022/07/06 02:50:16;;;;;;;;;;;14.20;99.90;;;;;;5035995;28;19923;-84
2022/07/06 02:52:42;;;;;;;;;;;14.20;99.90;;;;;;5035468;28;20003;-83
2022/07/06 02:55:08;;;;;;;;;;;14.10;99.90;;;;;;5037036;28;19939;-84
2022/07/06 02:57:33;;;;;;;;;;;14.10;99.90;;;;;;5037611;28;20272;-82
2022/07/06 02:59:59;;;;;;;;;;;14.00;99.90;;;;;;5035504;28;19973;-84
2022/07/06 03:02:24;;;;;;;;;;;14.00;99.90;;;;;;5035414;28;20414;-83
2022/07/06 03:04:50;;;;;;;;;;;13.90;99.90;;;;;;5035316;28;19923;-83
2022/07/06 03:07:16;;;;;;;;;;;13.90;99.90;;;;;;5036207;28;19923;-84
2022/07/06 03:09:41;;;;;;;;;;;13.80;99.90;;;;;;5035275;28;19925;-84
2022/07/06 03:12:07;;;;;;;;;;;13.80;99.90;;;;;;5053722;28;19912;-83
2022/07/06 03:14:32;;;;;;;;;;;13.80;99.90;;;;;;5035461;28;19916;-83
2022/07/06 03:16:58;;;;;;;;;;;13.80;99.90;;;;;;5034856;28;19998;-83
2022/07/06 03:19:24;;;;;;;;;;;13.70;99.90;;;;;;5034319;28;20585;-83
2022/07/06 03:21:49;;;;;;;;;;;13.70;99.90;;;;;;5034964;28;20364;-84
2022/07/06 03:24:15;;;;;;;;;;;13.60;99.90;;;;;;5035016;28;19920;-84
2022/07/06 03:26:40;;;;;;;;;;;13.50;99.90;;;;;;5034538;28;19943;-83
2022/07/06 03:29:06;;;;;;;;;;;13.50;99.90;;;;;;5034256;28;20284;-81
2022/07/06 03:31:31;;;;;;;;;;;13.50;99.90;;;;;;5018252;28;20419;-84
2022/07/06 03:33:57;;;;;;;;;;;13.40;99.90;;;;;;5034667;28;20300;-83
2022/07/06 03:36:22;;;;;;;;;;;13.40;99.90;;;;;;5034760;28;20331;-83
2022/07/06 03:38:48;;;;;;;;;;;13.40;99.90;;;;;;5052812;28;19917;-84
2022/07/06 03:41:14;;;;;;;;;;;13.40;99.90;;;;;;5018862;28;20516;-85
2022/07/06 03:43:39;;;;;;;;;;;13.30;99.90;;;;;;5034741;28;20075;-83
2022/07/06 03:46:05;;;;;;;;;;;13.30;99.90;;;;;;5034524;28;19917;-84
2022/07/06 03:48:30;;;;;;;;;;;13.30;99.90;;;;;;5032371;28;19917;-83
2022/07/06 03:50:56;;;;;;;;;;;13.30;99.90;;;;;;5030331;28;20265;-83
2022/07/06 03:53:21;;;;;;;;;;;13.30;99.90;;;;;;5007628;28;19921;-83
2022/07/06 03:56:27;;;;;;;;;;;13.20;99.90;;;;;;5016666;28;19917;-83
2022/07/06 03:58:33;;;;;;;;;;;13.20;99.90;;;;;;5042108;28;19929;-82
2022/07/06 04:00:58;;;;;;;;;;;13.20;99.90;;;;;;5034310;28;19923;-84
2022/07/06 04:03:24;;;;;;;;;;;13.10;99.90;;;;;;5034342;28;19921;-84
2022/07/06 04:05:49;;;;;;;;;;;13.00;99.90;;;;;;5033710;28;20442;-84
2022/07/06 04:08:16;;;;;;;;;;;13.00;99.90;;;;;;5018472;28;19963;-84
2022/07/06 04:10:42;;;;;;;;;;;12.90;99.90;;;;;;5032992;28;20031;-84
2022/07/06 04:13:07;;;;;;;;;;;12.80;99.90;;;;;;5051755;28;20377;-83
2022/07/06 04:15:33;;;;;;;;;;;12.80;99.90;;;;;;5020205;28;19916;-83
2022/07/06 04:17:58;;;;;;;;;;;12.80;99.90;;;;;;5033756;28;20007;-84
2022/07/06 04:20:25;;;;;;;;;;;12.90;99.90;;;;;;5033985;28;19916;-84
2022/07/06 04:22:51;;;;;;;;;;;12.90;99.90;;;;;;5031671;28;19921;-84
2022/07/06 04:25:17;;;;;;;;;;;12.90;99.90;;;;;;5034093;28;20380;-84
2022/07/06 04:27:42;;;;;;;;;;;12.90;99.90;;;;;;5033764;28;20007;-84
2022/07/06 04:30:08;;;;;;;;;;;13.00;99.90;;;;;;5033776;28;19928;-85
2022/07/06 04:32:34;;;;;;;;;;;13.10;99.90;;;;;;5033644;28;20381;-85
2022/07/06 04:35:00;;;;;;;;;;;13.20;99.90;;;;;;5030777;28;19959;-84
2022/07/06 04:37:25;;;;;;;;;;;13.20;99.90;;;;;;5011690;28;19929;-84
2022/07/06 04:39:51;;;;;;;;;;;13.30;99.90;;;;;;5031580;28;19921;-84
2022/07/06 04:42:16;;;;;;;;;;;13.30;99.90;;;;;;5033515;28;19917;-84
2022/07/06 04:44:42;;;;;;;;;;;13.40;99.90;;;;;;5033711;28;19923;-83
2022/07/06 04:47:07;;;;;;;;;;;13.50;99.90;;;;;;5033280;28;19959;-84
2022/07/06 04:49:33;;;;;;;;;;;13.60;99.90;;;;;;5033638;28;19917;-82
2022/07/06 04:51:58;;;;;;;;;;;13.60;99.90;;;;;;5033323;28;19964;-83
2022/07/06 04:54:24;;;;;;;;;;;13.70;99.90;;;;;;5033040;28;19923;-82
2022/07/06 04:56:50;;;;;;;;;;;13.70;99.90;;;;;;5033770;28;20373;-83
2022/07/06 04:59:15;;;;;;;;;;;13.80;99.90;;;;;;5033066;28;20384;-83
2022/07/06 05:01:41;;;;;;;;;;;13.90;99.90;;;;;;5033298;28;19921;-83
2022/07/06 05:04:07;;;;;;;;;;;13.90;99.90;;;;;;5012798;28;19929;-83
2022/07/06 05:06:32;;;;;;;;;;;14.00;99.90;;;;;;5030552;28;19956;-84
2022/07/06 05:08:59;;;;;;;;;;;14.00;99.90;;;;;;5012069;28;19966;-84
2022/07/06 05:11:25;;;;;;;;;;;14.00;99.90;;;;;;5027042;28;20034;-84
2022/07/06 05:13:51;;;;;;;;;;;14.10;99.90;;;;;;5029574;28;19916;-84
2022/07/06 05:16:16;;;;;;;;;;;14.10;99.90;;;;;;5028279;28;19932;-84
2022/07/06 05:18:42;;;;;;;;;;;14.20;99.90;;;;;;5030390;28;20364;-86
2022/07/06 05:21:07;;;;;;;;;;;14.20;99.90;;;;;;5028904;28;19999;-84
2022/07/06 05:23:34;;;;;;;;;;;14.30;99.90;;;;;;5029952;28;19922;-84
2022/07/06 05:25:59;;;;;;;;;;;14.30;99.90;;;;;;5028341;28;19917;-83
2022/07/06 05:28:25;;;;;;;;;;;14.40;99.90;;;;;;5028190;28;19974;-83
2022/07/06 05:30:50;;;;;;;;;;;14.40;99.90;;;;;;5031065;28;19921;-82
2022/07/06 05:33:16;;;;;;;;;;;14.40;99.90;;;;;;5029281;28;19964;-84
2022/07/06 05:35:41;;;;;;;;;;;14.40;99.90;;;;;;5029434;28;19999;-84
2022/07/06 05:38:07;;;;;;;;;;;14.40;99.90;;;;;;5035831;28;19967;-84
2022/07/06 05:40:33;;;;;;;;;;;14.50;99.90;;;;;;5034076;28;19923;-84
2022/07/06 05:42:59;;;;;;;;;;;14.40;99.90;;;;;;5031100;28;20055;-84
2022/07/06 05:45:24;;;;;;;;;;;14.40;99.90;;;;;;5034986;28;20399;-83
2022/07/06 05:50:34;;;;;;;;;;;14.50;99.90;;;;;;5031089;28;20027;-84
2022/07/06 05:53:02;;;;;;;;;;;14.50;99.90;;;;;;5029551;28;20003;-84
2022/07/06 05:55:27;;;;;;;;;;;14.50;99.90;;;;;;5032778;28;19916;-84
2022/07/06 05:57:56;;;;;;;;;;;14.70;99.90;;;;;;5032951;28;19916;-83
2022/07/06 06:00:24;;;;;;;;;;;14.70;99.90;;;;;;5032120;28;19931;-84
2022/07/06 06:02:49;;;;;;;;;;;14.80;99.90;;;;;;5034579;28;19921;-84
2022/07/06 06:05:15;;;;;;;;;;;14.80;99.90;;;;;;5029650;28;19999;-83
2022/07/06 06:07:41;;;;;;;;;;;14.80;99.90;;;;;;5032851;28;19924;-84
2022/07/06 06:10:08;;;;;;;;;;;14.80;99.90;;;;;;5027623;28;19952;-84
2022/07/06 06:12:33;;;;;;;;;;;14.80;99.90;;;;;;5032333;28;19917;-83
2022/07/06 06:14:59;;;;;;;;;;;14.80;99.90;;;;;;5030786;28;19924;-83
2022/07/06 06:17:24;;;;;;;;;;;14.70;99.90;;;;;;5033617;28;19920;-83
2022/07/06 06:19:50;;;;;;;;;;;14.70;99.90;;;;;;5037608;28;19970;-83
2022/07/06 06:22:16;;;;;;;;;;;14.70;99.90;;;;;;5031458;28;20455;-83
2022/07/06 06:24:41;;;;;;;;;;;14.70;99.90;;;;;;5026897;28;19931;-84
2022/07/06 06:27:07;;;;;;;;;;;14.80;99.90;;;;;;5032001;28;19916;-85
2022/07/06 06:29:32;;;;;;;;;;;14.80;99.90;;;;;;5031352;28;19924;-83
2022/07/06 06:31:58;;;;;;;;;;;14.80;99.90;;;;;;5029205;28;19920;-83
2022/07/06 06:34:23;;;;;;;;;;;14.80;99.90;;;;;;5032688;28;20353;-82
2022/07/06 06:36:49;;;;;;;;;;;14.80;99.90;;;;;;5045363;28;19995;-82
2022/07/06 06:39:15;;;;;;;;;;;14.80;99.90;;;;;;5030185;28;19924;-84
2022/07/06 06:41:40;;;;;;;;;;;14.80;99.90;;;;;;5035623;28;20043;-83
2022/07/06 06:44:06;;;;;;;;;;;14.80;99.90;;;;;;5033415;28;19943;-83
2022/07/06 06:46:31;;;;;;;;;;;14.80;99.90;;;;;;5026271;28;19924;-84
2022/07/06 06:48:57;;;;;;;;;;;14.80;99.90;;;;;;5024334;28;19967;-83
2022/07/06 06:51:22;;;;;;;;;;;14.90;99.90;;;;;;5015653;28;19916;-82
2022/07/06 06:53:48;;;;;;;;;;;15.00;99.90;;;;;;5031338;28;19916;-83
2022/07/06 06:56:14;;;;;;;;;;;15.00;99.90;;;;;;5034623;28;20394;-83
2022/07/06 06:58:39;;;;;;;;;;;15.20;99.90;;;;;;5031055;28;20003;-83
2022/07/06 07:01:05;;;;;;;;;;;15.60;99.90;;;;;;5038743;28;19949;-83
2022/07/06 07:03:31;;;;;;;;;;;16.30;99.90;;;;;;5013072;28;20767;-82
2022/07/06 07:05:56;;;;;;;;;;;17.00;99.90;;;;;;5032471;28;20396;-83
2022/07/06 07:08:22;;;;;;;;;;;17.40;99.90;;;;;;5026532;28;20666;-83
2022/07/06 07:10:48;;;;;;;;;;;17.50;99.90;;;;;;5015312;28;19925;-83
2022/07/06 07:13:13;;;;;;;;;;;17.40;99.90;;;;;;5030418;28;20026;-84
2022/07/06 07:15:39;;;;;;;;;;;17.20;99.90;;;;;;5017065;28;19917;-84
2022/07/06 07:18:04;;;;;;;;;;;17.20;99.90;;;;;;5028875;28;20367;-83
2022/07/06 07:20:31;;;;;;;;;;;17.20;99.90;;;;;;5014818;28;19916;-84
2022/07/06 07:22:56;;;;;;;;;;;17.10;99.90;;;;;;5025555;28;19928;-84
2022/07/06 07:25:22;;;;;;;;;;;17.00;99.90;;;;;;5003981;28;19921;-83
2022/07/06 07:27:48;;;;;;;;;;;16.90;99.90;;;;;;5037738;28;19920;-83
2022/07/06 07:30:13;;;;;;;;;;;16.90;99.90;;;;;;5032832;28;19924;-83
2022/07/06 07:32:42;;;;;;;;;;;16.90;99.90;;;;;;5033158;28;20011;-83
2022/07/06 07:35:08;;;;;;;;;;;16.90;99.90;;;;;;5030034;28;19917;-84
2022/07/06 07:37:33;;;;;;;;;;;17.10;99.90;;;;;;4998379;28;19921;-83
2022/07/06 07:39:59;;;;;;;;;;;17.50;99.90;;;;;;5012547;28;19916;-83
2022/07/06 07:42:24;;;;;;;;;;;18.20;99.90;;;;;;5011949;28;19953;-82
2022/07/06 07:44:50;;;;;;;;;;;18.70;99.90;;;;;;4992879;28;19928;-82
2022/07/06 07:47:15;;;;;;;;;;;19.10;99.90;;;;;;4998529;28;19921;-85
2022/07/06 07:49:41;;;;;;;;;;;19.40;99.90;;;;;;5008911;28;19928;-85
2022/07/06 07:52:07;;;;;;;;;;;19.20;99.90;;;;;;5006517;28;20004;-86
2022/07/06 07:54:32;;;;;;;;;;;19.20;99.90;;;;;;5011977;28;19924;-84
2022/07/06 07:56:58;;;;;;;;;;;19.50;99.90;;;;;;5011922;28;19917;-85
2022/07/06 07:59:24;;;;;;;;;;;19.50;99.90;;;;;;5018526;28;20436;-86
2022/07/06 08:01:49;;;;;;;;;;;19.30;99.90;;;;;;5010837;28;19960;-83
2022/07/06 08:04:15;;;;;;;;;;;19.10;99.90;;;;;;5008709;28;19927;-83
2022/07/06 08:06:41;;;;;;;;;;;19.40;99.90;;;;;;5010926;28;19917;-83
2022/07/06 08:09:07;;;;;;;;;;;19.40;99.90;;;;;;5007856;28;19921;-82
2022/07/06 08:11:36;;;;;;;;;;;19.30;99.90;;;;;;5011578;28;19925;-82
2022/07/06 08:14:02;;;;;;;;;;;19.10;99.90;;;;;;4996397;28;19927;-83
2022/07/06 08:16:28;;;;;;;;;;;19.00;99.90;;;;;;5011444;28;20007;-82
2022/07/06 08:18:53;;;;;;;;;;;19.10;99.90;;;;;;5018679;28;19964;-82
2022/07/06 08:21:19;;;;;;;;;;;19.10;99.90;;;;;;5015548;28;19917;-83
2022/07/06 08:23:44;;;;;;;;;;;19.10;99.90;;;;;;4996842;28;20282;-83
2022/07/06 08:26:10;;;;;;;;;;;19.30;99.90;;;;;;5016781;28;19917;-83
2022/07/06 08:28:35;;;;;;;;;;;19.40;99.90;;;;;;4996406;28;19917;-83
2022/07/06 08:31:01;;;;;;;;;;;19.50;99.90;;;;;;5012971;28;19920;-83
2022/07/06 08:33:27;;;;;;;;;;;19.70;99.90;;;;;;5010309;28;19960;-83
2022/07/06 08:35:52;;;;;;;;;;;19.80;99.90;;;;;;5016480;28;19925;-83
2022/07/06 08:38:18;;;;;;;;;;;20.00;99.90;;;;;;5029891;28;20253;-82
2022/07/06 08:40:45;;;;;;;;;;;20.10;99.90;;;;;;5046123;28;19924;-82
2022/07/06 08:43:14;;;;;;;;;;;20.30;99.90;;;;;;5040351;28;20305;-83
2022/07/06 08:45:40;;;;;;;;;;;20.30;99.90;;;;;;5028902;28;20020;-85
2022/07/06 08:48:06;;;;;;;;;;;20.60;99.90;;;;;;5049048;28;19940;-84
2022/07/06 08:50:32;;;;;;;;;;;20.70;99.90;;;;;;5029935;28;19920;-84
2022/07/06 08:52:57;;;;;;;;;;;21.00;99.90;;;;;;5025201;28;20414;-83
2022/07/06 08:55:24;;;;;;;;;;;21.10;99.90;;;;;;5010402;28;19937;-84
2022/07/06 08:57:51;;;;;;;;;;;21.00;99.90;;;;;;5035587;28;19920;-84
2022/07/06 09:00:16;;;;;;;;;;;21.00;99.90;;;;;;5026775;28;19925;-82
2022/07/06 09:02:42;;;;;;;;;;;21.00;99.90;;;;;;5029646;28;19924;-85
2022/07/06 09:05:08;;;;;;;;;;;21.00;99.90;;;;;;5014591;28;20406;-84
2022/07/06 09:07:34;;;;;;;;;;;20.60;99.90;;;;;;5035567;28;19917;-85
2022/07/06 09:10:00;;;;;;;;;;;20.20;99.90;;;;;;5028653;28;19962;-84
2022/07/06 09:12:26;;;;;;;;;;;19.80;99.90;;;;;;5029689;28;19982;-84
2022/07/06 09:14:54;;;;;;;;;;;19.40;99.90;;;;;;5034544;28;19925;-83
2022/07/06 09:17:20;;;;;;;;;;;19.10;99.90;;;;;;5030685;28;19923;-84
2022/07/06 09:19:46;;;;;;;;;;;18.90;99.90;;;;;;5033134;28;19916;-84
2022/07/06 09:22:24;;;;;;;;;;;18.80;99.90;;;;;;5021272;28;19917;-84
2022/07/06 09:24:50;;;;;;;;;;;18.70;99.90;;;;;;5036197;28;19920;-84
2022/07/06 09:27:16;;;;;;;;;;;19.00;99.90;;;;;;5023246;28;20363;-84
2022/07/06 09:29:42;;;;;;;;;;;19.40;99.90;;;;;;5033058;28;20292;-85
2022/07/06 09:32:08;;;;;;;;;;;20.00;99.90;;;;;;5032511;28;19999;-84
2022/07/06 09:34:40;;;;;;;;;;;20.60;99.90;;;;;;5015851;28;20289;-85
2022/07/06 09:37:06;;;;;;;;;;;20.80;99.90;;;;;;5032263;28;19921;-84
2022/07/06 09:39:32;;;;;;;;;;;20.90;99.90;;;;;;5032457;28;19924;-84
2022/07/06 09:41:58;;;;;;;;;;;20.80;99.90;;;;;;5030431;28;19916;-84
2022/07/06 09:44:25;;;;;;;;;;;20.80;99.90;;;;;;5031717;28;19921;-84
2022/07/06 09:46:51;;;;;;;;;;;21.30;99.90;;;;;;5033768;28;19923;-84
2022/07/06 09:49:20;;;;;;;;;;;21.40;99.90;;;;;;5033308;28;19944;-84
2022/07/06 09:51:47;;;;;;;;;;;21.40;99.90;;;;;;5033215;28;19916;-84
2022/07/06 09:54:13;;;;;;;;;;;21.30;99.90;;;;;;5030537;28;19916;-83
2022/07/06 09:56:40;;;;;;;;;;;21.10;99.90;;;;;;5037374;28;19917;-85
2022/07/06 09:59:10;;;;;;;;;;;20.80;99.90;;;;;;5039976;28;20003;-82
2022/07/06 10:01:36;;;;;;;;;;;20.60;99.90;;;;;;5032602;28;20015;-84
2022/07/06 10:04:02;;;;;;;;;;;20.40;99.90;;;;;;5031673;28;19925;-84
2022/07/06 10:06:27;;;;;;;;;;;20.50;99.90;;;;;;5031532;28;19916;-83
2022/07/06 10:08:54;;;;;;;;;;;20.50;99.90;;;;;;5032470;28;20463;-83
2022/07/06 10:11:20;;;;;;;;;;;20.60;99.90;;;;;;5030863;28;19924;-84
2022/07/06 10:13:46;;;;;;;;;;;20.70;99.90;;;;;;5027263;28;19928;-84
2022/07/06 10:16:13;;;;;;;;;;;20.90;99.90;;;;;;5036516;28;20411;-82
2022/07/06 10:18:39;;;;;;;;;;;21.00;99.90;;;;;;5031952;28;19925;-83
2022/07/06 10:21:05;;;;;;;;;;;21.00;99.90;;;;;;5016250;28;20440;-83
2022/07/06 10:23:30;;;;;;;;;;;21.10;99.90;;;;;;5032968;28;19927;-82
2022/07/06 10:25:57;;;;;;;;;;;21.00;99.90;;;;;;5033554;28;19917;-83
2022/07/06 10:28:23;;;;;;;;;;;21.10;99.90;;;;;;5031547;28;19924;-83
2022/07/06 10:30:49;;;;;;;;;;;21.40;99.90;;;;;;5016679;28;19916;-82
2022/07/06 10:33:15;;;;;;;;;;;21.80;99.90;;;;;;5033661;28;19999;-83
2022/07/06 10:35:41;;;;;;;;;;;22.10;99.40;;;;;;5030547;28;19935;-83
2022/07/06 10:38:08;;;;;;;;;;;22.40;99.00;;;;;;5032475;28;19973;-82
2022/07/06 10:43:22;;;;;;;;;;;23.50;99.90;;;;;;5033911;28;19932;-84
2022/07/06 10:45:48;;;;;;;;;;;24.00;99.40;;;;;;5033114;28;19916;-81
2022/07/06 10:48:15;;;;;;;;;;;23.90;98.10;;;;;;5022253;28;19917;-85
2022/07/06 10:50:45;;;;;;;;;;;23.50;97.90;;;;;;5032229;28;19925;-82
2022/07/06 10:53:14;;;;;;;;;;;23.20;98.50;;;;;;5034531;28;20021;-81
2022/07/06 10:55:42;;;;;;;;;;;22.80;99.30;;;;;;5045929;28;19917;-85
2022/07/06 10:58:08;;;;;;;;;;;22.90;99.00;;;;;;5035173;28;19925;-86
2022/07/06 11:00:53;;;;;;;;;;;23.20;99.70;;;;;;5033032;28;19940;-86
2022/07/06 11:03:37;;;;;;;;;;;23.20;98.50;;;;;;5033829;28;19925;-85
2022/07/06 11:06:13;;;;;;;;;;;22.90;97.00;;;;;;5034523;28;20361;-84
2022/07/06 11:08:43;;;;;;;;;;;22.70;98.10;;;;;;5042992;28;19917;-84
2022/07/06 11:11:14;;;;;;;;;;;23.00;97.70;;;;;;5034587;28;19924;-85
2022/07/06 11:13:43;;;;;;;;;;;23.30;98.20;;;;;;5033121;28;19924;-86
2022/07/06 11:16:09;;;;;;;;;;;23.70;97.80;;;;;;5034172;28;20349;-87
2022/07/06 11:18:41;;;;;;;;;;;23.50;97.80;;;;;;5015804;28;19916;-87
2022/07/06 11:21:21;;;;;;;;;;;23.30;96.50;;;;;;5037784;28;19966;-85
2022/07/06 11:23:48;;;;;;;;;;;23.20;97.50;;;;;;5033217;28;19982;-85
2022/07/06 11:26:14;;;;;;;;;;;23.00;97.70;;;;;;5033741;28;19917;-84
2022/07/06 11:28:40;;;;;;;;;;;22.90;97.00;;;;;;5017038;28;20289;-84
2022/07/06 11:31:05;;;;;;;;;;;22.90;97.60;;;;;;5033261;28;19916;-85
2022/07/06 11:33:31;;;;;;;;;;;23.10;97.10;;;;;;5039479;28;20384;-85
2022/07/06 11:36:12;;;;;;;;;;;23.60;97.70;;;;;;5037284;28;19928;-86
2022/07/06 11:38:38;;;;;;;;;;;24.10;96.80;;;;;;5033505;28;19943;-87
2022/07/06 11:41:03;;;;;;;;;;;24.30;96.60;;;;;;5019450;28;19920;-87
2022/07/06 11:43:29;;;;;;;;;;;24.70;96.80;;;;;;5033961;28;19920;-84
2022/07/06 11:45:54;;;;;;;;;;;25.20;96.20;;;;;;5017013;28;19927;-84
2022/07/06 11:48:20;;;;;;;;;;;25.50;96.00;;;;;;5033224;28;20360;-87
2022/07/06 11:51:02;;;;;;;;;;;25.70;95.60;;;;;;5029734;28;20395;-85
2022/07/06 11:53:27;;;;;;;;;;;25.90;95.00;;;;;;5033770;28;19927;-85
2022/07/06 11:55:53;;;;;;;;;;;26.10;93.80;;;;;;5033417;28;19917;-84
2022/07/06 11:58:23;;;;;;;;;;;26.00;94.50;;;;;;5033336;28;19920;-84
2022/07/06 12:01:11;;;;;;;;;;;25.60;95.20;;;;;;5032669;28;19920;-84
2022/07/06 12:03:37;;;;;;;;;;;25.40;94.40;;;;;;5019028;28;19921;-87
2022/07/06 12:06:03;;;;;;;;;;;25.30;94.80;;;;;;5024101;28;19916;-88
2022/07/06 12:08:29;;;;;;;;;;;25.20;94.50;;;;;;5039497;28;20388;-87
2022/07/06 12:10:55;;;;;;;;;;;24.90;93.90;;;;;;5016510;28;19916;-85
2022/07/06 12:13:21;;;;;;;;;;;24.60;94.80;;;;;;5033030;28;19978;-85
2022/07/06 12:15:46;;;;;;;;;;;24.70;94.70;;;;;;5032612;28;19963;-86
2022/07/06 12:18:12;;;;;;;;;;;24.70;94.60;;;;;;5032770;28;19924;-87
2022/07/06 12:20:37;;;;;;;;;;;24.80;94.60;;;;;;5031675;28;20424;-84
2022/07/06 12:23:03;;;;;;;;;;;24.50;94.60;;;;;;5033052;28;19951;-83
2022/07/06 12:25:30;;;;;;;;;;;24.40;94.90;;;;;;5036343;28;19923;-83
2022/07/06 12:27:56;;;;;;;;;;;24.40;95.10;;;;;;5035896;28;19917;-84
2022/07/06 12:30:22;;;;;;;;;;;24.50;95.10;;;;;;5033110;28;20008;-84
2022/07/06 12:33:07;;;;;;;;;;;24.50;95.70;;;;;;5032807;28;20438;-86
2022/07/06 12:35:33;;;;;;;;;;;24.60;95.80;;;;;;5031089;28;19916;-82
2022/07/06 12:38:00;;;;;;;;;;;24.70;95.30;;;;;;5033095;28;20446;-81
2022/07/06 12:40:27;;;;;;;;;;;24.80;95.90;;;;;;5029774;28;20003;-82
2022/07/06 12:42:53;;;;;;;;;;;24.80;95.60;;;;;;5029593;28;19928;-81
2022/07/06 12:45:19;;;;;;;;;;;24.70;96.00;;;;;;5033022;28;19920;-81
2022/07/06 12:47:57;;;;;;;;;;;24.70;95.80;;;;;;5032663;28;20384;-80
2022/07/06 12:50:30;;;;;;;;;;;24.70;95.50;;;;;;5032529;28;19956;-81
2022/07/06 12:52:55;;;;;;;;;;;24.60;95.10;;;;;;5032557;28;19923;-81
2022/07/06 12:55:25;;;;;;;;;;;24.30;95.10;;;;;;5032894;28;19921;-82
2022/07/06 12:57:51;;;;;;;;;;;24.10;95.80;;;;;;5032315;28;20365;-81
2022/07/06 13:00:17;;;;;;;;;;;23.90;96.30;;;;;;5032054;28;19926;-81
2022/07/06 13:02:48;;;;;;;;;;;23.40;96.30;;;;;;5031925;28;20288;-81
2022/07/06 13:05:15;;;;;;;;;;;23.40;96.80;;;;;;5033044;28;19939;-80
2022/07/06 13:07:45;;;;;;;;;;;23.40;96.50;;;;;;5031468;28;20011;-81
2022/07/06 13:10:11;;;;;;;;;;;23.20;95.90;;;;;;5032253;28;19924;-81
2022/07/06 13:12:38;;;;;;;;;;;23.20;96.20;;;;;;5031798;28;19956;-81
2022/07/06 13:15:04;;;;;;;;;;;23.10;96.00;;;;;;5032641;28;19924;-82
2022/07/06 13:17:30;;;;;;;;;;;23.10;96.80;;;;;;5029525;28;19923;-80
2022/07/06 13:19:55;;;;;;;;;;;23.10;96.50;;;;;;5031586;28;19999;-82
2022/07/06 13:22:21;;;;;;;;;;;23.10;96.30;;;;;;5032087;28;19970;-82
2022/07/06 13:24:46;;;;;;;;;;;23.10;96.60;;;;;;4998570;28;19921;-81
2022/07/06 13:27:12;;;;;;;;;;;23.30;96.60;;;;;;5032399;28;20277;-81
2022/07/06 13:29:38;;;;;;;;;;;23.30;96.40;;;;;;5031882;28;19917;-81
2022/07/06 13:32:04;;;;;;;;;;;23.20;96.50;;;;;;5032547;28;20621;-81
2022/07/06 13:34:30;;;;;;;;;;;23.10;96.20;;;;;;5032319;28;19964;-81
2022/07/06 13:36:55;;;;;;;;;;;22.90;96.00;;;;;;5030470;28;19952;-82
2022/07/06 13:39:21;;;;;;;;;;;22.70;96.00;;;;;;5039279;28;19917;-81
2022/07/06 13:41:47;;;;;;;;;;;22.70;96.50;;;;;;5031399;28;19916;-81
2022/07/06 13:44:12;;;;;;;;;;;22.70;96.20;;;;;;5031854;28;19927;-82
2022/07/06 13:46:39;;;;;;;;;;;22.50;96.40;;;;;;5031163;28;19923;-80
2022/07/06 13:49:05;;;;;;;;;;;22.30;96.90;;;;;;5032600;28;19964;-81
2022/07/06 13:51:32;;;;;;;;;;;22.20;96.90;;;;;;5028016;28;19917;-81
2022/07/06 13:54:01;;;;;;;;;;;22.10;96.90;;;;;;5015608;28;20388;-82
2022/07/06 13:56:27;;;;;;;;;;;21.90;96.60;;;;;;5031965;28;19990;-82
2022/07/06 13:58:52;;;;;;;;;;;21.80;97.10;;;;;;5031588;28;19917;-82
2022/07/06 14:01:18;;;;;;;;;;;21.60;96.80;;;;;;5049929;28;19924;-82
2022/07/06 14:03:44;;;;;;;;;;;21.60;97.30;;;;;;5039769;28;19920;-82
2022/07/06 14:06:10;;;;;;;;;;;21.70;97.30;;;;;;5041070;28;19917;-81
2022/07/06 14:08:36;;;;;;;;;;;21.70;97.30;;;;;;5032874;28;19968;-81
2022/07/06 14:11:03;;;;;;;;;;;21.50;97.60;;;;;;5036123;28;19974;-81
2022/07/06 14:13:28;;;;;;;;;;;21.30;97.50;;;;;;5040805;28;20136;-82
2022/07/06 14:15:54;;;;;;;;;;;21.40;97.40;;;;;;5034899;28;19917;-82
2022/07/06 14:18:20;;;;;;;;;;;21.40;97.60;;;;;;5035640;28;19916;-82